createdAt,value
2016-11-14T00:00:16.177Z,0
2016-11-14T00:01:16.381Z,0
2016-11-14T00:02:15.219Z,0
2016-11-14T00:03:16.605Z,0
2016-11-14T00:04:16.378Z,0
2016-11-14T00:05:16.985Z,0
2016-11-14T00:06:17.038Z,0
2016-11-14T00:07:17.170Z,0
2016-11-14T00:08:16.906Z,0
2016-11-14T00:09:15.516Z,0
2016-11-14T00:10:15.697Z,0
2016-11-14T00:11:16.098Z,0
2016-11-14T00:12:16.846Z,0
2016-11-14T00:13:17.047Z,0
2016-11-14T00:14:16.757Z,0
2016-11-14T00:15:16.178Z,0
2016-11-14T00:16:15.880Z,0
2016-11-14T00:17:16.355Z,0
2016-11-14T00:18:17.092Z,0
2016-11-14T00:19:16.269Z,0
2016-11-14T00:20:15.868Z,0
2016-11-14T00:21:15.173Z,0
2016-11-14T00:22:15.824Z,0
2016-11-14T00:23:16.002Z,0
2016-11-14T00:24:16.920Z,0
2016-11-14T00:25:16.634Z,0
2016-11-14T00:26:15.798Z,0
2016-11-14T00:27:15.667Z,0
2016-11-14T00:28:16.370Z,0
2016-11-14T00:29:16.032Z,0
2016-11-14T00:30:15.785Z,0
2016-11-14T00:31:16.341Z,0
2016-11-14T00:32:15.628Z,0
2016-11-14T00:33:16.415Z,0
2016-11-14T00:34:15.531Z,0
2016-11-14T00:35:14.971Z,0
2016-11-14T00:36:16.586Z,0
2016-11-14T00:37:15.820Z,0
2016-11-14T00:38:16.554Z,0
2016-11-14T00:39:15.300Z,0
2016-11-14T00:40:15.360Z,0
2016-11-14T00:41:15.611Z,0
2016-11-14T00:42:15.370Z,0
2016-11-14T00:43:15.830Z,0
2016-11-14T00:44:15.052Z,0
2016-11-14T00:45:15.258Z,0
2016-11-14T00:46:16.075Z,0
2016-11-14T00:47:14.977Z,0
2016-11-14T00:48:16.784Z,0
2016-11-14T00:49:16.612Z,0
2016-11-14T00:50:14.360Z,0
2016-11-14T00:51:15.631Z,0
2016-11-14T00:52:16.173Z,0
2016-11-14T00:53:15.860Z,0
2016-11-14T00:54:14.769Z,0
2016-11-14T00:55:15.342Z,0
2016-11-14T00:56:15.341Z,0
2016-11-14T00:57:14.942Z,0
2016-11-14T00:58:14.660Z,0
2016-11-14T00:59:16.363Z,0
2016-11-14T01:00:14.602Z,0
2016-11-14T01:01:13.552Z,0
2016-11-14T01:02:15.491Z,0
2016-11-14T01:03:14.900Z,0
2016-11-14T01:04:15.230Z,0
2016-11-14T01:05:14.672Z,0
2016-11-14T01:06:14.893Z,0
2016-11-14T01:07:14.504Z,0
2016-11-14T01:08:13.520Z,0
2016-11-14T01:09:14.328Z,0
2016-11-14T01:10:15.500Z,0
2016-11-14T01:11:15.524Z,0
2016-11-14T01:12:13.967Z,0
2016-11-14T01:13:14.584Z,0
2016-11-14T01:14:14.171Z,0
2016-11-14T01:15:15.372Z,0
2016-11-14T01:16:13.135Z,0
2016-11-14T01:17:14.343Z,0
2016-11-14T01:18:14.798Z,0
2016-11-14T01:19:14.372Z,0
2016-11-14T01:20:14.171Z,0
2016-11-14T01:21:14.841Z,0
2016-11-14T01:22:15.349Z,0
2016-11-14T01:23:15.138Z,0
2016-11-14T01:24:13.810Z,0
2016-11-14T01:25:13.434Z,0
2016-11-14T01:26:15.652Z,0
2016-11-14T01:27:14.312Z,0
2016-11-14T01:28:14.132Z,0
2016-11-14T01:29:13.526Z,0
2016-11-14T01:30:15.125Z,0
2016-11-14T01:31:14.062Z,0
2016-11-14T01:32:13.678Z,0
2016-11-14T01:33:14.398Z,0
2016-11-14T01:34:14.795Z,0
2016-11-14T01:35:13.682Z,0
2016-11-14T01:36:13.810Z,0
2016-11-14T01:37:14.118Z,0
2016-11-14T01:38:14.598Z,0
2016-11-14T01:39:13.879Z,0
2016-11-14T01:40:14.103Z,0
2016-11-14T01:41:13.395Z,0
2016-11-14T01:42:14.796Z,0
2016-11-14T01:43:13.761Z,0
2016-11-14T01:44:13.830Z,0
2016-11-14T01:45:14.680Z,0
2016-11-14T01:46:14.438Z,0
2016-11-14T01:47:12.834Z,0
2016-11-14T01:48:14.012Z,0
2016-11-14T01:49:13.619Z,0
2016-11-14T01:50:14.124Z,0
2016-11-14T01:51:13.142Z,0
2016-11-14T01:52:14.056Z,0
2016-11-14T01:53:13.071Z,0
2016-11-14T01:54:13.469Z,0
2016-11-14T01:55:14.851Z,0
2016-11-14T01:56:13.059Z,0
2016-11-14T01:57:13.648Z,0
2016-11-14T01:58:13.259Z,0
2016-11-14T01:59:13.302Z,0
2016-11-14T02:00:13.356Z,0
2016-11-14T02:01:13.475Z,0
2016-11-14T02:02:13.852Z,0
2016-11-14T02:03:14.343Z,0
2016-11-14T02:04:14.565Z,0
2016-11-14T02:05:12.015Z,0
2016-11-14T02:06:13.292Z,0
2016-11-14T02:07:13.406Z,0
2016-11-14T02:08:12.123Z,0
2016-11-14T02:09:12.846Z,0
2016-11-14T02:10:13.808Z,0
2016-11-14T02:11:13.497Z,0
2016-11-14T02:12:12.635Z,0
2016-11-14T02:13:13.276Z,0
2016-11-14T02:14:12.922Z,0
2016-11-14T02:15:12.982Z,0
2016-11-14T02:16:12.434Z,0
2016-11-14T02:17:11.752Z,0
2016-11-14T02:18:13.189Z,0
2016-11-14T02:19:14.160Z,0
2016-11-14T02:20:12.807Z,0
2016-11-14T02:21:13.317Z,0
2016-11-14T02:22:12.725Z,0
2016-11-14T02:23:13.417Z,0
2016-11-14T02:24:13.024Z,0
2016-11-14T02:25:12.886Z,0
2016-11-14T02:26:11.945Z,0
2016-11-14T02:27:13.235Z,0
2016-11-14T02:28:11.962Z,0
2016-11-14T02:29:12.175Z,0
2016-11-14T02:30:12.282Z,0
2016-11-14T02:31:12.448Z,0
2016-11-14T02:32:13.871Z,0
2016-11-14T02:33:12.693Z,0
2016-11-14T02:34:13.213Z,0
2016-11-14T02:35:13.582Z,0
2016-11-14T02:36:12.623Z,0
2016-11-14T02:37:11.650Z,0
2016-11-14T02:38:12.606Z,0
2016-11-14T02:39:13.236Z,0
2016-11-14T02:40:12.931Z,0
2016-11-14T02:41:13.130Z,0
2016-11-14T02:42:12.075Z,0
2016-11-14T02:43:11.796Z,0
2016-11-14T02:44:12.205Z,0
2016-11-14T02:45:11.610Z,0
2016-11-14T02:46:11.531Z,0
2016-11-14T02:47:12.368Z,0
2016-11-14T02:48:11.881Z,0
2016-11-14T02:49:11.961Z,0
2016-11-14T02:50:11.810Z,0
2016-11-14T02:51:12.894Z,0
2016-11-14T02:52:12.124Z,0
2016-11-14T02:53:11.416Z,0
2016-11-14T02:54:12.170Z,0
2016-11-14T02:55:10.871Z,0
2016-11-14T02:56:11.505Z,0
2016-11-14T02:57:12.560Z,0
2016-11-14T02:58:11.693Z,0
2016-11-14T02:59:11.335Z,0
2016-11-14T03:00:12.594Z,0
2016-11-14T03:01:12.635Z,0
2016-11-14T03:02:12.105Z,0
2016-11-14T03:03:11.337Z,0
2016-11-14T03:04:11.841Z,0
2016-11-14T03:05:12.011Z,0
2016-11-14T03:06:12.371Z,0
2016-11-14T03:07:12.413Z,0
2016-11-14T03:08:12.104Z,0
2016-11-14T03:09:11.283Z,0
2016-11-14T03:10:11.673Z,0
2016-11-14T03:11:11.888Z,0
2016-11-14T03:12:11.879Z,0
2016-11-14T03:13:10.899Z,0
2016-11-14T03:14:11.982Z,0
2016-11-14T03:15:10.889Z,0
2016-11-14T03:16:11.140Z,0
2016-11-14T03:17:11.057Z,0
2016-11-14T03:18:10.810Z,0
2016-11-14T03:19:10.139Z,0
2016-11-14T03:20:11.194Z,0
2016-11-14T03:21:11.533Z,0
2016-11-14T03:22:11.269Z,0
2016-11-14T03:23:10.839Z,0
2016-11-14T03:24:11.013Z,0
2016-11-14T03:25:11.519Z,0
2016-11-14T03:26:11.789Z,0
2016-11-14T03:27:11.444Z,0
2016-11-14T03:28:09.815Z,0
2016-11-14T03:29:11.680Z,0
2016-11-14T03:30:11.780Z,0
2016-11-14T03:31:11.084Z,0
2016-11-14T03:32:10.026Z,0
2016-11-14T03:33:10.736Z,0
2016-11-14T03:34:11.254Z,0
2016-11-14T03:35:11.382Z,0
2016-11-14T03:36:12.073Z,0
2016-11-14T03:37:11.575Z,0
2016-11-14T03:38:11.547Z,0
2016-11-14T03:39:09.501Z,0
2016-11-14T03:40:10.193Z,0
2016-11-14T03:41:10.371Z,0
2016-11-14T03:42:10.312Z,0
2016-11-14T03:43:10.053Z,0
2016-11-14T03:44:10.644Z,0
2016-11-14T03:45:10.385Z,0
2016-11-14T03:46:09.541Z,0
2016-11-14T03:47:10.046Z,0
2016-11-14T03:48:10.175Z,0
2016-11-14T03:49:10.232Z,0
2016-11-14T03:50:10.087Z,0
2016-11-14T03:51:11.040Z,0
2016-11-14T03:52:09.531Z,0
2016-11-14T03:53:09.618Z,0
2016-11-14T03:54:10.466Z,0
2016-11-14T03:55:09.916Z,0
2016-11-14T03:56:11.051Z,0
2016-11-14T03:57:10.810Z,0
2016-11-14T03:58:10.110Z,0
2016-11-14T03:59:10.985Z,0
2016-11-14T04:00:10.273Z,0
2016-11-14T04:01:09.297Z,0
2016-11-14T04:02:10.475Z,0
2016-11-14T04:03:09.453Z,0
2016-11-14T04:04:11.267Z,0
2016-11-14T04:05:10.629Z,0
2016-11-14T04:06:10.059Z,0
2016-11-14T04:07:09.401Z,0
2016-11-14T04:08:09.243Z,0
2016-11-14T04:09:09.986Z,0
2016-11-14T04:10:10.687Z,0
2016-11-14T04:11:09.991Z,0
2016-11-14T04:12:09.857Z,0
2016-11-14T04:13:10.376Z,0
2016-11-14T04:14:10.406Z,0
2016-11-14T04:15:09.712Z,0
2016-11-14T04:16:09.777Z,0
2016-11-14T04:17:09.825Z,0
2016-11-14T04:18:08.755Z,0
2016-11-14T04:19:10.393Z,0
2016-11-14T04:20:10.050Z,0
2016-11-14T04:21:08.146Z,0
2016-11-14T04:22:09.664Z,0
2016-11-14T04:23:09.532Z,0
2016-11-14T04:24:08.645Z,0
2016-11-14T04:25:09.583Z,0
2016-11-14T04:26:10.216Z,0
2016-11-14T04:27:09.525Z,0
2016-11-14T04:28:08.861Z,0
2016-11-14T04:29:08.845Z,0
2016-11-14T04:30:09.013Z,0
2016-11-14T04:31:09.113Z,0
2016-11-14T04:32:09.653Z,0
2016-11-14T04:33:09.797Z,0
2016-11-14T04:34:10.456Z,0
2016-11-14T04:35:07.767Z,0
2016-11-14T04:36:09.287Z,0
2016-11-14T04:37:09.026Z,0
2016-11-14T04:38:09.771Z,0
2016-11-14T04:39:09.889Z,0
2016-11-14T04:40:08.837Z,0
2016-11-14T04:41:08.284Z,0
2016-11-14T04:42:08.447Z,0
2016-11-14T04:43:08.587Z,0
2016-11-14T04:44:08.506Z,0
2016-11-14T04:45:09.086Z,0
2016-11-14T04:46:08.944Z,0
2016-11-14T04:47:08.663Z,0
2016-11-14T04:48:08.952Z,0
2016-11-14T04:49:09.574Z,0
2016-11-14T04:50:08.864Z,0
2016-11-14T04:51:09.415Z,0
2016-11-14T04:52:07.527Z,0
2016-11-14T04:53:08.819Z,0
2016-11-14T04:54:07.065Z,0
2016-11-14T04:55:08.364Z,0
2016-11-14T04:56:07.372Z,0
2016-11-14T04:57:09.042Z,0
2016-11-14T04:58:07.705Z,0
2016-11-14T04:59:07.625Z,0
2016-11-14T05:00:09.046Z,0
2016-11-14T05:01:09.277Z,0
2016-11-14T05:02:08.153Z,0
2016-11-14T05:03:08.214Z,0
2016-11-14T05:04:07.951Z,0
2016-11-14T05:05:08.143Z,0
2016-11-14T05:06:08.459Z,0
2016-11-14T05:07:08.823Z,0
2016-11-14T05:08:08.234Z,0
2016-11-14T05:09:07.857Z,0
2016-11-14T05:10:09.047Z,0
2016-11-14T05:11:07.894Z,0
2016-11-14T05:12:08.694Z,0
2016-11-14T05:13:07.523Z,0
2016-11-14T05:14:07.903Z,0
2016-11-14T05:15:08.174Z,0
2016-11-14T05:16:08.802Z,0
2016-11-14T05:17:07.516Z,0
2016-11-14T05:18:08.554Z,0
2016-11-14T05:19:07.773Z,0
2016-11-14T05:20:07.434Z,0
2016-11-14T05:21:08.017Z,0
2016-11-14T05:22:07.804Z,0
2016-11-14T05:23:08.243Z,0
2016-11-14T05:24:06.647Z,0
2016-11-14T05:25:08.251Z,0
2016-11-14T05:26:07.636Z,0
2016-11-14T05:27:07.556Z,0
2016-11-14T05:28:07.654Z,0
2016-11-14T05:29:08.394Z,0
2016-11-14T05:30:07.794Z,0
2016-11-14T05:31:07.173Z,0
2016-11-14T05:32:07.079Z,0
2016-11-14T05:33:07.393Z,0
2016-11-14T05:34:08.765Z,0
2016-11-14T05:35:07.424Z,0
2016-11-14T05:36:07.216Z,0
2016-11-14T05:37:07.132Z,0
2016-11-14T05:38:06.880Z,0
2016-11-14T05:39:08.614Z,0
2016-11-14T05:40:07.597Z,0
2016-11-14T05:41:07.872Z,0
2016-11-14T05:42:06.734Z,0
2016-11-14T05:43:06.711Z,0
2016-11-14T05:44:08.425Z,0
2016-11-14T05:45:07.304Z,0
2016-11-14T05:46:07.117Z,0
2016-11-14T05:47:06.093Z,0
2016-11-14T05:48:06.186Z,0
2016-11-14T05:49:06.912Z,0
2016-11-14T05:50:06.925Z,0
2016-11-14T05:51:07.492Z,0
2016-11-14T05:52:06.272Z,0
2016-11-14T05:53:06.575Z,0
2016-11-14T05:54:07.117Z,0
2016-11-14T05:55:06.841Z,0
2016-11-14T05:56:07.315Z,0
2016-11-14T05:57:07.122Z,0
2016-11-14T05:58:05.917Z,0
2016-11-14T05:59:06.218Z,0
2016-11-14T06:00:05.556Z,0
2016-11-14T06:01:06.634Z,0
2016-11-14T06:02:06.826Z,0
2016-11-14T06:03:05.706Z,0
2016-11-14T06:04:07.902Z,0
2016-11-14T06:05:06.809Z,0
2016-11-14T06:06:06.454Z,0
2016-11-14T06:07:05.209Z,0
2016-11-14T06:08:07.686Z,0
2016-11-14T06:09:07.057Z,0
2016-11-14T06:10:06.343Z,0
2016-11-14T06:11:05.951Z,0
2016-11-14T06:12:06.863Z,0
2016-11-14T06:13:06.266Z,0
2016-11-14T06:14:05.658Z,0
2016-11-14T06:15:06.208Z,0
2016-11-14T06:16:07.007Z,0
2016-11-14T06:17:05.494Z,0
2016-11-14T06:18:04.715Z,0
2016-11-14T06:19:05.087Z,0
2016-11-14T06:20:05.567Z,0
2016-11-14T06:21:06.754Z,0
2016-11-14T06:22:06.726Z,0
2016-11-14T06:23:06.767Z,0
2016-11-14T06:24:04.998Z,0
2016-11-14T06:25:06.484Z,0
2016-11-14T06:26:05.737Z,0
2016-11-14T06:27:07.202Z,0
2016-11-14T06:28:05.726Z,0
2016-11-14T06:29:04.859Z,0
2016-11-14T06:30:06.323Z,0
2016-11-14T06:31:05.352Z,0
2016-11-14T06:32:06.226Z,0
2016-11-14T06:33:05.378Z,0
2016-11-14T06:34:05.974Z,0
2016-11-14T06:35:05.708Z,0
2016-11-14T06:36:06.493Z,0
2016-11-14T06:37:04.998Z,0
2016-11-14T06:38:04.964Z,0
2016-11-14T06:39:06.084Z,0
2016-11-14T06:40:04.999Z,0
2016-11-14T06:41:05.525Z,0
2016-11-14T06:42:06.443Z,0
2016-11-14T06:43:06.787Z,5
2016-11-14T06:44:05.566Z,5
2016-11-14T06:45:04.283Z,5
2016-11-14T06:46:05.413Z,5
2016-11-14T06:47:05.190Z,5
2016-11-14T06:48:05.852Z,5
2016-11-14T06:49:06.587Z,5
2016-11-14T06:50:05.235Z,5
2016-11-14T06:51:05.500Z,5
2016-11-14T06:52:05.033Z,10
2016-11-14T06:53:04.694Z,10
2016-11-14T06:54:05.447Z,10
2016-11-14T06:55:04.960Z,10
2016-11-14T06:56:04.633Z,10
2016-11-14T06:57:06.006Z,10
2016-11-14T06:58:05.904Z,15
2016-11-14T06:59:05.603Z,15
2016-11-14T07:00:05.893Z,15
2016-11-14T07:01:04.572Z,15
2016-11-14T07:02:04.845Z,15
2016-11-14T07:03:04.935Z,20
2016-11-14T07:04:04.083Z,20
2016-11-14T07:05:03.481Z,20
2016-11-14T07:06:04.846Z,20
2016-11-14T07:07:03.424Z,25
2016-11-14T07:08:04.347Z,25
2016-11-14T07:09:03.840Z,25
2016-11-14T07:10:04.940Z,25
2016-11-14T07:11:05.623Z,25
2016-11-14T07:12:04.175Z,30
2016-11-14T07:13:04.204Z,30
2016-11-14T07:14:05.773Z,30
2016-11-14T07:15:04.611Z,30
2016-11-14T07:16:05.205Z,35
2016-11-14T07:17:05.458Z,35
2016-11-14T07:18:05.299Z,35
2016-11-14T07:19:03.548Z,35
2016-11-14T07:20:04.658Z,40
2016-11-14T07:21:04.390Z,40
2016-11-14T07:22:03.974Z,40
2016-11-14T07:23:04.043Z,45
2016-11-14T07:24:03.434Z,45
2016-11-14T07:25:03.805Z,45
2016-11-14T07:26:05.174Z,45
2016-11-14T07:27:04.743Z,50
2016-11-14T07:28:03.788Z,50
2016-11-14T07:29:04.657Z,50
2016-11-14T07:30:04.305Z,55
2016-11-14T07:31:04.020Z,55
2016-11-14T07:32:03.989Z,55
2016-11-14T07:33:03.990Z,60
2016-11-14T07:34:04.204Z,60
2016-11-14T07:35:04.545Z,65
2016-11-14T07:36:03.745Z,65
2016-11-14T07:37:03.262Z,65
2016-11-14T07:38:04.266Z,70
2016-11-14T07:39:03.641Z,75
2016-11-14T07:40:03.947Z,105
2016-11-14T07:41:04.434Z,140
2016-11-14T07:42:04.706Z,265
2016-11-14T07:43:04.134Z,315
2016-11-14T07:44:03.788Z,215
2016-11-14T07:45:04.493Z,180
2016-11-14T07:46:03.553Z,245
2016-11-14T07:47:04.595Z,240
2016-11-14T07:48:03.753Z,130
2016-11-14T07:49:03.452Z,105
2016-11-14T07:50:03.530Z,120
2016-11-14T07:51:03.395Z,155
2016-11-14T07:52:03.424Z,185
2016-11-14T07:53:04.406Z,185
2016-11-14T07:54:04.378Z,165
2016-11-14T07:55:04.130Z,150
2016-11-14T07:56:03.159Z,145
2016-11-14T07:57:03.772Z,175
2016-11-14T07:58:03.697Z,195
2016-11-14T07:59:04.156Z,185
2016-11-14T08:00:03.496Z,175
2016-11-14T08:01:03.025Z,150
2016-11-14T08:02:03.068Z,175
2016-11-14T08:03:03.137Z,145
2016-11-14T08:04:03.973Z,150
2016-11-14T08:05:01.906Z,160
2016-11-14T08:06:03.861Z,145
2016-11-14T08:07:02.104Z,145
2016-11-14T08:08:04.433Z,195
2016-11-14T08:09:03.377Z,190
2016-11-14T08:10:02.914Z,260
2016-11-14T08:11:03.689Z,255
2016-11-14T08:12:02.963Z,220
2016-11-14T08:13:02.923Z,335
2016-11-14T08:14:02.483Z,265
2016-11-14T08:15:03.013Z,260
2016-11-14T08:16:02.978Z,335
2016-11-14T08:17:02.491Z,510
2016-11-14T08:18:03.023Z,600
2016-11-14T08:19:03.337Z,590
2016-11-14T08:20:03.377Z,465
2016-11-14T08:21:02.647Z,310
2016-11-14T08:22:03.335Z,235
2016-11-14T08:23:02.774Z,205
2016-11-14T08:24:02.616Z,300
2016-11-14T08:25:02.985Z,425
2016-11-14T08:26:02.184Z,605
2016-11-14T08:27:03.543Z,610
2016-11-14T08:28:03.494Z,580
2016-11-14T08:29:02.120Z,440
2016-11-14T08:30:02.851Z,310
2016-11-14T08:31:03.438Z,440
2016-11-14T08:32:01.783Z,595
2016-11-14T08:33:01.138Z,575
2016-11-14T08:34:03.017Z,550
2016-11-14T08:35:02.235Z,630
2016-11-14T08:36:02.315Z,800
2016-11-14T08:37:02.369Z,880
2016-11-14T08:38:02.395Z,880
2016-11-14T08:39:02.355Z,930
2016-11-14T08:40:02.524Z,625
2016-11-14T08:41:02.155Z,845
2016-11-14T08:42:02.594Z,1025
2016-11-14T08:43:02.164Z,1025
2016-11-14T08:44:01.931Z,1025
2016-11-14T08:45:01.184Z,1060
2016-11-14T08:46:02.908Z,1050
2016-11-14T08:47:02.683Z,995
2016-11-14T08:48:03.074Z,905
2016-11-14T08:49:02.056Z,855
2016-11-14T08:50:01.247Z,855
2016-11-14T08:51:01.854Z,850
2016-11-14T08:52:02.014Z,895
2016-11-14T08:53:02.236Z,985
2016-11-14T08:54:01.263Z,1045
2016-11-14T08:55:02.595Z,1025
2016-11-14T08:56:01.605Z,915
2016-11-14T08:57:01.105Z,1065
2016-11-14T08:58:02.556Z,1070
2016-11-14T08:59:01.683Z,1105
2016-11-14T09:00:00.803Z,1095
2016-11-14T09:01:01.506Z,1065
2016-11-14T09:02:03.044Z,1075
2016-11-14T09:03:01.784Z,1105
2016-11-14T09:04:02.168Z,975
2016-11-14T09:05:02.555Z,925
2016-11-14T09:06:01.435Z,1050
2016-11-14T09:07:01.803Z,1170
2016-11-14T09:08:02.443Z,1075
2016-11-14T09:09:01.596Z,1005
2016-11-14T09:10:01.690Z,1095
2016-11-14T09:11:01.983Z,1085
2016-11-14T09:12:00.935Z,980
2016-11-14T09:13:01.966Z,1055
2016-11-14T09:14:01.607Z,1005
2016-11-14T09:15:02.873Z,980
2016-11-14T09:16:02.543Z,1035
2016-11-14T09:17:01.762Z,1105
2016-11-14T09:18:02.504Z,1110
2016-11-14T09:19:00.256Z,1125
2016-11-14T09:20:02.251Z,1090
2016-11-14T09:21:01.923Z,1070
2016-11-14T09:22:00.673Z,1070
2016-11-14T09:23:02.890Z,1120
2016-11-14T09:24:01.403Z,1120
2016-11-14T09:25:02.191Z,1060
2016-11-14T09:26:01.205Z,1105
2016-11-14T09:27:02.193Z,1095
2016-11-14T09:28:01.633Z,1120
2016-11-14T09:29:00.761Z,1130
2016-11-14T09:30:01.711Z,1065
2016-11-14T09:31:01.474Z,1025
2016-11-14T09:32:00.623Z,1100
2016-11-14T09:33:01.509Z,1080
2016-11-14T09:34:01.192Z,1095
2016-11-14T09:35:00.736Z,1175
2016-11-14T09:36:00.330Z,1130
2016-11-14T09:37:01.265Z,1085
2016-11-14T09:38:01.474Z,990
2016-11-14T09:39:01.202Z,1040
2016-11-14T09:40:00.923Z,990
2016-11-14T09:41:00.654Z,1020
2016-11-14T09:42:01.932Z,965
2016-11-14T09:43:01.780Z,750
2016-11-14T09:44:01.804Z,480
2016-11-14T09:45:01.553Z,240
2016-11-14T09:46:01.178Z,235
2016-11-14T09:47:02.515Z,255
2016-11-14T09:48:00.089Z,250
2016-11-14T09:49:00.761Z,260
2016-11-14T09:50:01.554Z,260
2016-11-14T09:51:01.397Z,265
2016-11-14T09:52:01.424Z,280
2016-11-14T09:53:01.624Z,280
2016-11-14T09:54:01.591Z,285
2016-11-14T09:55:00.296Z,295
2016-11-14T09:55:59.774Z,340
2016-11-14T09:57:01.141Z,290
2016-11-14T09:58:01.189Z,285
2016-11-14T09:59:01.486Z,295
2016-11-14T10:00:01.125Z,315
2016-11-14T10:00:59.864Z,275
2016-11-14T10:02:01.011Z,275
2016-11-14T10:03:00.381Z,285
2016-11-14T10:04:01.693Z,285
2016-11-14T10:05:00.504Z,280
2016-11-14T10:06:01.490Z,295
2016-11-14T10:07:00.248Z,300
2016-11-14T10:08:00.310Z,310
2016-11-14T10:09:00.013Z,350
2016-11-14T10:10:00.274Z,320
2016-11-14T10:11:01.650Z,275
2016-11-14T10:12:00.214Z,270
2016-11-14T10:13:01.454Z,270
2016-11-14T10:13:59.702Z,255
2016-11-14T10:15:00.984Z,255
2016-11-14T10:16:00.332Z,275
2016-11-14T10:16:59.937Z,260
2016-11-14T10:18:01.162Z,245
2016-11-14T10:19:00.223Z,240
2016-11-14T10:20:01.545Z,245
2016-11-14T10:21:01.383Z,245
2016-11-14T10:22:00.183Z,240
2016-11-14T10:22:59.919Z,240
2016-11-14T10:24:00.725Z,245
2016-11-14T10:25:00.415Z,240
2016-11-14T10:26:01.152Z,240
2016-11-14T10:27:01.375Z,260
2016-11-14T10:27:59.093Z,265
2016-11-14T10:28:59.873Z,270
2016-11-14T10:30:01.074Z,255
2016-11-14T10:31:00.943Z,265
2016-11-14T10:32:00.395Z,260
2016-11-14T10:32:59.150Z,265
2016-11-14T10:34:00.866Z,255
2016-11-14T10:35:01.613Z,255
2016-11-14T10:35:59.088Z,240
2016-11-14T10:37:00.595Z,235
2016-11-14T10:38:01.532Z,245
2016-11-14T10:39:00.162Z,235
2016-11-14T10:39:59.485Z,215
2016-11-14T10:41:00.933Z,215
2016-11-14T10:42:00.004Z,210
2016-11-14T10:42:59.992Z,210
2016-11-14T10:44:00.301Z,210
2016-11-14T10:44:59.523Z,215
2016-11-14T10:46:00.365Z,230
2016-11-14T10:47:00.736Z,215
2016-11-14T10:48:00.222Z,205
2016-11-14T10:48:59.458Z,200
2016-11-14T10:50:00.016Z,205
2016-11-14T10:50:59.632Z,195
2016-11-14T10:51:59.160Z,190
2016-11-14T10:52:59.567Z,180
2016-11-14T10:54:00.616Z,175
2016-11-14T10:54:58.917Z,170
2016-11-14T10:55:59.014Z,165
2016-11-14T10:56:59.391Z,165
2016-11-14T10:58:00.746Z,165
2016-11-14T10:59:00.456Z,160
2016-11-14T11:00:00.735Z,165
2016-11-14T11:00:59.261Z,175
2016-11-14T11:01:58.966Z,170
2016-11-14T11:03:00.463Z,175
2016-11-14T11:03:59.302Z,185
2016-11-14T11:04:59.251Z,180
2016-11-14T11:06:00.543Z,170
2016-11-14T11:06:59.081Z,170
2016-11-14T11:07:59.256Z,185
2016-11-14T11:08:59.921Z,180
2016-11-14T11:10:00.095Z,230
2016-11-14T11:10:59.628Z,185
2016-11-14T11:12:00.167Z,170
2016-11-14T11:12:59.798Z,165
2016-11-14T11:14:00.445Z,155
2016-11-14T11:14:59.551Z,155
2016-11-14T11:16:00.233Z,150
2016-11-14T11:17:00.718Z,155
2016-11-14T11:17:59.687Z,165
2016-11-14T11:18:58.758Z,165
2016-11-14T11:19:58.144Z,155
2016-11-14T11:20:59.008Z,150
2016-11-14T11:21:59.178Z,145
2016-11-14T11:22:58.384Z,145
2016-11-14T11:23:59.791Z,150
2016-11-14T11:24:59.230Z,150
2016-11-14T11:26:00.506Z,150
2016-11-14T11:26:59.823Z,165
2016-11-14T11:27:59.124Z,250
2016-11-14T11:28:59.734Z,230
2016-11-14T11:29:58.982Z,285
2016-11-14T11:30:59.622Z,155
2016-11-14T11:31:59.287Z,145
2016-11-14T11:32:58.721Z,140
2016-11-14T11:33:58.801Z,140
2016-11-14T11:34:59.753Z,140
2016-11-14T11:35:58.383Z,140
2016-11-14T11:36:59.888Z,140
2016-11-14T11:37:57.745Z,150
2016-11-14T11:38:59.001Z,320
2016-11-14T11:39:58.867Z,165
2016-11-14T11:40:58.882Z,140
2016-11-14T11:41:58.404Z,125
2016-11-14T11:42:59.300Z,120
2016-11-14T11:43:58.751Z,120
2016-11-14T11:44:58.463Z,115
2016-11-14T11:45:59.681Z,110
2016-11-14T11:46:59.232Z,105
2016-11-14T11:47:59.318Z,105
2016-11-14T11:48:59.272Z,100
2016-11-14T11:49:58.980Z,100
2016-11-14T11:50:58.273Z,100
2016-11-14T11:51:59.806Z,100
2016-11-14T11:52:58.153Z,100
2016-11-14T11:53:58.863Z,100
2016-11-14T11:54:58.180Z,95
2016-11-14T11:55:58.093Z,90
2016-11-14T11:56:58.800Z,90
2016-11-14T11:57:57.717Z,85
2016-11-14T11:58:58.593Z,85
2016-11-14T11:59:58.547Z,80
2016-11-14T12:00:58.416Z,80
2016-11-14T12:01:57.883Z,80
2016-11-14T12:02:57.545Z,80
2016-11-14T12:03:58.247Z,80
2016-11-14T12:04:58.152Z,80
2016-11-14T12:05:58.335Z,80
2016-11-14T12:06:58.204Z,75
2016-11-14T12:07:57.438Z,75
2016-11-14T12:08:58.662Z,70
2016-11-14T12:09:58.226Z,70
2016-11-14T12:10:57.643Z,65
2016-11-14T12:11:57.807Z,65
2016-11-14T12:12:58.881Z,65
2016-11-14T12:13:58.122Z,65
2016-11-14T12:14:58.336Z,60
2016-11-14T12:15:57.518Z,60
2016-11-14T12:16:57.335Z,60
2016-11-14T12:17:56.934Z,55
2016-11-14T12:18:58.472Z,55
2016-11-14T12:19:58.691Z,55
2016-11-14T12:20:58.360Z,55
2016-11-14T12:21:57.626Z,55
2016-11-14T12:22:58.457Z,55
2016-11-14T12:23:58.548Z,55
2016-11-14T12:24:57.800Z,55
2016-11-14T12:25:58.062Z,55
2016-11-14T12:26:57.102Z,55
2016-11-14T12:27:58.083Z,55
2016-11-14T12:28:57.963Z,55
2016-11-14T12:29:57.548Z,55
2016-11-14T12:30:57.888Z,55
2016-11-14T12:31:58.652Z,55
2016-11-14T12:32:57.973Z,55
2016-11-14T12:33:58.220Z,55
2016-11-14T12:34:57.723Z,50
2016-11-14T12:35:58.345Z,50
2016-11-14T12:36:57.138Z,50
2016-11-14T12:37:57.180Z,50
2016-11-14T12:38:57.593Z,50
2016-11-14T12:39:57.466Z,50
2016-11-14T12:40:57.817Z,50
2016-11-14T12:41:58.818Z,55
2016-11-14T12:42:56.604Z,55
2016-11-14T12:43:58.140Z,55
2016-11-14T12:44:57.631Z,55
2016-11-14T12:45:57.601Z,55
2016-11-14T12:46:57.712Z,55
2016-11-14T12:47:57.820Z,55
2016-11-14T12:48:57.881Z,55
2016-11-14T12:49:57.563Z,55
2016-11-14T12:50:57.333Z,55
2016-11-14T12:51:57.711Z,55
2016-11-14T12:52:56.782Z,60
2016-11-14T12:53:57.174Z,60
2016-11-14T12:54:57.374Z,60
2016-11-14T12:55:57.431Z,60
2016-11-14T12:56:57.944Z,65
2016-11-14T12:57:57.621Z,70
2016-11-14T12:58:55.825Z,70
2016-11-14T12:59:57.872Z,75
2016-11-14T13:00:57.453Z,75
2016-11-14T13:01:56.563Z,75
2016-11-14T13:02:57.543Z,80
2016-11-14T13:03:56.434Z,85
2016-11-14T13:04:56.240Z,85
2016-11-14T13:05:56.224Z,85
2016-11-14T13:06:56.272Z,85
2016-11-14T13:07:56.806Z,80
2016-11-14T13:08:56.794Z,80
2016-11-14T13:09:56.693Z,80
2016-11-14T13:10:56.377Z,80
2016-11-14T13:11:56.831Z,80
2016-11-14T13:12:57.441Z,80
2016-11-14T13:13:57.482Z,75
2016-11-14T13:14:56.173Z,75
2016-11-14T13:15:56.761Z,75
2016-11-14T13:16:56.797Z,85
2016-11-14T13:17:57.231Z,90
2016-11-14T13:18:57.201Z,100
2016-11-14T13:19:55.882Z,95
2016-11-14T13:20:57.954Z,90
2016-11-14T13:21:56.824Z,105
2016-11-14T13:22:57.400Z,100
2016-11-14T13:23:56.359Z,100
2016-11-14T13:24:57.210Z,100
2016-11-14T13:25:57.894Z,95
2016-11-14T13:26:56.699Z,85
2016-11-14T13:27:57.921Z,90
2016-11-14T13:28:56.911Z,75
2016-11-14T13:29:56.441Z,70
2016-11-14T13:30:56.615Z,70
2016-11-14T13:31:57.303Z,70
2016-11-14T13:32:56.353Z,70
2016-11-14T13:33:56.426Z,65
2016-11-14T13:34:56.661Z,65
2016-11-14T13:35:56.504Z,60
2016-11-14T13:36:57.585Z,60
2016-11-14T13:37:56.423Z,55
2016-11-14T13:38:56.509Z,55
2016-11-14T13:39:56.675Z,55
2016-11-14T13:40:56.439Z,50
2016-11-14T13:41:55.372Z,50
2016-11-14T13:42:54.666Z,45
2016-11-14T13:43:55.921Z,45
2016-11-14T13:44:56.000Z,45
2016-11-14T13:45:55.394Z,45
2016-11-14T13:46:56.534Z,45
2016-11-14T13:47:55.954Z,40
2016-11-14T13:48:55.914Z,40
2016-11-14T13:49:56.447Z,40
2016-11-14T13:50:56.333Z,40
2016-11-14T13:51:55.741Z,40
2016-11-14T13:52:56.173Z,40
2016-11-14T13:53:55.971Z,40
2016-11-14T13:54:56.269Z,40
2016-11-14T13:55:55.521Z,40
2016-11-14T13:56:55.929Z,40
2016-11-14T13:57:55.027Z,40
2016-11-14T13:58:54.621Z,40
2016-11-14T13:59:56.000Z,40
2016-11-14T14:00:55.638Z,40
2016-11-14T14:01:55.400Z,40
2016-11-14T14:02:55.248Z,40
2016-11-14T14:03:55.673Z,40
2016-11-14T14:04:55.961Z,40
2016-11-14T14:05:55.821Z,40
2016-11-14T14:06:56.041Z,40
2016-11-14T14:07:55.081Z,40
2016-11-14T14:08:55.800Z,35
2016-11-14T14:09:55.770Z,35
2016-11-14T14:10:54.779Z,35
2016-11-14T14:11:55.026Z,35
2016-11-14T14:12:55.534Z,35
2016-11-14T14:13:55.766Z,35
2016-11-14T14:14:55.581Z,30
2016-11-14T14:15:54.547Z,30
2016-11-14T14:16:55.219Z,30
2016-11-14T14:17:54.966Z,30
2016-11-14T14:18:55.447Z,30